DA12 weather

Public forecast

Using degrees Celsius for public forecast. Weather courtesy of forecast.io.

Closest aviation weather report (METAR) to El Abiodh Sidi Cheikh Airport

Closest report is Mecheria Airport, 54.3 nm (100.6 km) NW. Retrieved 2020/08/15 10:00 UTC (11 minutes ago):

DAAY 151000Z 18016KT 8000 NSC 34/06 Q1022

Closest aviation forecast (TAF) to El Abiodh Sidi Cheikh Airport

Forecast is more than 12 hours old.

Closest forecast is Mecheria Airport, 54.3 nm (100.6 km) NW. Retrieved 2019/12/03 18:48 UTC (9 months ago):

TAF TAF DAAY 031700Z 0318/0406 24012KT 8000 FEW023TCU SCT030 PROB40 TEMPO 0318/0321 24015G25KT 5000 -TSRA FEW023CB